createdAt,value
2018-06-25T00:00:19.047Z,100735.86
2018-06-25T00:02:46.027Z,100731.59
2018-06-25T00:05:12.950Z,100736.03
2018-06-25T00:07:39.823Z,100734.41
2018-06-25T00:10:06.786Z,100737.64
2018-06-25T00:12:34.771Z,100732.09
2018-06-25T00:15:01.719Z,100736.03
2018-06-25T00:17:28.681Z,100736.70
2018-06-25T00:19:55.626Z,100736.18
2018-06-25T00:22:23.222Z,100738.36
2018-06-25T00:24:52.223Z,100740.66
2018-06-25T00:27:19.191Z,100742.13
2018-06-25T00:29:46.143Z,100735.38
2018-06-25T00:32:13.091Z,100742.31
2018-06-25T00:34:40.069Z,100739.84
2018-06-25T00:37:07.031Z,100742.14
2018-06-25T00:39:33.963Z,100739.52
2018-06-25T00:42:02.974Z,100738.53
2018-06-25T00:44:29.930Z,100745.28
2018-06-25T00:46:57.922Z,100736.56
2018-06-25T00:49:24.880Z,100727.27
2018-06-25T00:51:51.851Z,100729.53
2018-06-25T00:54:18.795Z,100725.47
2018-06-25T00:56:45.755Z,100725.92
2018-06-25T00:59:24.289Z,100733.15
2018-06-25T01:01:51.587Z,100735.64
2018-06-25T01:04:18.482Z,100735.46
2018-06-25T01:06:45.451Z,100732.03
2018-06-25T01:09:12.627Z,100731.86
2018-06-25T01:11:39.661Z,100730.55
2018-06-25T01:14:06.647Z,100728.59
2018-06-25T01:16:33.654Z,100737.97
2018-06-25T01:19:00.676Z,100742.73
2018-06-25T01:21:27.638Z,100739.11
2018-06-25T01:23:54.591Z,100739.27
2018-06-25T01:26:21.511Z,100741.08
2018-06-25T01:28:48.503Z,100744.36
2018-06-25T01:31:15.455Z,100743.05
2018-06-25T01:33:43.339Z,100735.83
2018-06-25T01:36:10.287Z,100736.47
2018-06-25T01:38:37.253Z,100735.00
2018-06-25T01:41:04.194Z,100739.12
2018-06-25T01:43:31.184Z,100736.62
2018-06-25T01:46:00.179Z,100729.93
2018-06-25T01:48:27.134Z,100734.05
2018-06-25T01:50:54.107Z,100730.77
2018-06-25T01:53:21.046Z,100724.41
2018-06-25T01:55:48.019Z,100721.77
2018-06-25T01:58:16.811Z,100717.84
2018-06-25T02:00:45.305Z,100722.61
2018-06-25T02:03:12.274Z,100725.09
2018-06-25T02:05:39.231Z,100731.93
2018-06-25T02:08:06.172Z,100725.20
2018-06-25T02:10:33.827Z,100725.39
2018-06-25T02:13:00.914Z,100721.61
2018-06-25T02:15:27.875Z,100727.68
2018-06-25T02:17:56.776Z,100722.11
2018-06-25T02:20:23.714Z,100724.39
2018-06-25T02:22:50.691Z,100730.12
2018-06-25T02:25:17.652Z,100731.28
2018-06-25T02:27:44.606Z,100725.86
2018-06-25T02:30:11.562Z,100734.05
2018-06-25T02:32:38.500Z,100729.63
2018-06-25T02:35:05.502Z,100733.08
2018-06-25T02:37:32.445Z,100738.31
2018-06-25T02:39:59.404Z,100734.23
2018-06-25T02:42:26.354Z,100727.33
2018-06-25T02:44:53.275Z,100726.98
2018-06-25T02:47:20.296Z,100728.16
2018-06-25T02:49:47.240Z,100725.86
2018-06-25T02:52:14.809Z,100730.28
2018-06-25T02:54:41.772Z,100730.77
2018-06-25T02:57:08.727Z,100730.94
2018-06-25T02:59:35.683Z,100734.51
2018-06-25T03:02:02.655Z,100731.41
2018-06-25T03:04:29.600Z,100730.58
2018-06-25T03:06:56.523Z,100726.98
2018-06-25T03:09:23.523Z,100729.44
2018-06-25T03:11:51.487Z,100734.38
2018-06-25T03:14:18.456Z,100731.56
2018-06-25T03:16:45.411Z,100733.04
2018-06-25T03:19:12.339Z,100736.16
2018-06-25T03:21:39.383Z,100730.55
2018-06-25T03:24:06.290Z,100740.41
2018-06-25T03:26:33.258Z,100738.94
2018-06-25T03:29:00.200Z,100733.86
2018-06-25T03:31:27.147Z,100735.84
2018-06-25T03:33:54.827Z,100736.83
2018-06-25T03:36:21.775Z,100739.47
2018-06-25T03:38:48.747Z,100733.24
2018-06-25T03:41:15.696Z,100735.05
2018-06-25T03:43:42.674Z,100739.94
2018-06-25T03:46:09.631Z,100745.18
2018-06-25T03:48:37.606Z,100746.00
2018-06-25T03:51:04.622Z,100751.73
2018-06-25T03:53:32.683Z,100750.14
2018-06-25T03:55:59.612Z,100749.30
2018-06-25T03:58:26.568Z,100756.20
2018-06-25T04:00:53.487Z,100753.73
2018-06-25T04:03:20.471Z,100756.39
2018-06-25T04:05:47.470Z,100759.98
2018-06-25T04:08:14.491Z,100767.36
2018-06-25T04:10:41.443Z,100766.85
2018-06-25T04:13:08.423Z,100771.77
2018-06-25T04:15:35.452Z,100774.39
2018-06-25T04:18:03.451Z,100776.83
2018-06-25T04:20:30.441Z,100781.69
2018-06-25T04:22:57.366Z,100785.59
2018-06-25T04:25:24.335Z,100784.94
2018-06-25T04:27:51.272Z,100789.67
2018-06-25T04:30:18.131Z,100788.97
2018-06-25T04:32:45.095Z,100783.16
2018-06-25T04:35:13.067Z,100788.68
2018-06-25T04:37:42.005Z,100795.72
2018-06-25T04:40:09.995Z,100791.02
2018-06-25T04:42:37.811Z,100785.31
2018-06-25T04:45:06.066Z,100791.77
2018-06-25T04:47:36.787Z,100786.63
2018-06-25T04:50:03.743Z,100794.66
2018-06-25T04:52:30.659Z,100793.92
2018-06-25T04:54:58.667Z,100786.59
2018-06-25T04:57:26.318Z,100785.30
2018-06-25T04:59:53.341Z,100786.30
2018-06-25T05:02:21.310Z,100790.66
2018-06-25T05:04:48.215Z,100796.00
2018-06-25T05:07:15.067Z,100803.98
2018-06-25T05:09:41.945Z,100799.99
2018-06-25T05:12:08.795Z,100806.14
2018-06-25T05:14:35.659Z,100810.78
2018-06-25T05:17:02.526Z,100814.89
2018-06-25T05:19:29.383Z,100823.03
2018-06-25T05:21:56.238Z,100818.53
2018-06-25T05:24:23.103Z,100821.14
2018-06-25T05:26:49.967Z,100817.67
2018-06-25T05:29:16.861Z,100828.16
2018-06-25T05:31:43.689Z,100824.45
2018-06-25T05:34:10.624Z,100830.47
2018-06-25T05:36:37.503Z,100833.98
2018-06-25T05:39:07.227Z,100830.39
2018-06-25T05:41:34.095Z,100834.27
2018-06-25T05:44:00.971Z,100840.35
2018-06-25T05:46:27.827Z,100843.02
2018-06-25T05:48:54.716Z,100844.22
2018-06-25T05:51:21.571Z,100836.92
2018-06-25T05:53:48.436Z,100840.81
2018-06-25T05:56:15.314Z,100850.22
2018-06-25T05:58:42.174Z,100845.90
2018-06-25T06:01:09.044Z,100849.03
2018-06-25T06:03:35.926Z,100855.84
2018-06-25T06:06:02.798Z,100856.38
2018-06-25T06:08:29.659Z,100857.37
2018-06-25T06:10:56.559Z,100868.23
2018-06-25T06:13:23.411Z,100865.19
2018-06-25T06:15:50.274Z,100870.95
2018-06-25T06:18:17.148Z,100872.40
2018-06-25T06:20:44.036Z,100880.33
2018-06-25T06:23:10.903Z,100875.86
2018-06-25T06:25:37.856Z,100876.24
2018-06-25T06:28:05.411Z,100871.48
2018-06-25T06:30:32.266Z,100879.20
2018-06-25T06:32:59.135Z,100885.92
2018-06-25T06:35:25.986Z,100880.89
2018-06-25T06:37:52.835Z,100885.60
2018-06-25T06:40:19.706Z,100885.75
2018-06-25T06:42:46.583Z,100889.23
2018-06-25T06:45:13.448Z,100896.77
2018-06-25T06:47:40.291Z,100902.90
2018-06-25T06:50:07.168Z,100904.34
2018-06-25T06:52:34.037Z,100895.33
2018-06-25T06:55:00.893Z,100893.83
2018-06-25T06:57:27.799Z,100893.23
2018-06-25T06:59:54.623Z,100898.53
2018-06-25T07:02:22.481Z,100892.55
2018-06-25T07:04:49.360Z,100897.85
2018-06-25T07:07:17.183Z,100894.81
2018-06-25T07:09:44.048Z,100896.49
2018-06-25T07:12:10.903Z,100895.30
2018-06-25T07:14:37.782Z,100900.27
2018-06-25T07:17:04.647Z,100899.16
2018-06-25T07:19:31.491Z,100895.07
2018-06-25T07:21:58.355Z,100893.88
2018-06-25T07:24:25.239Z,100897.05
2018-06-25T07:26:52.101Z,100889.73
2018-06-25T07:29:18.963Z,100902.02
2018-06-25T07:31:45.811Z,100900.41
2018-06-25T07:34:12.661Z,100893.55
2018-06-25T07:36:39.524Z,100892.94
2018-06-25T07:39:07.830Z,100895.31
2018-06-25T07:41:34.698Z,100900.55
2018-06-25T07:44:01.556Z,100898.03
2018-06-25T07:46:28.411Z,100900.44
2018-06-25T07:48:55.332Z,100895.08
2018-06-25T07:51:22.142Z,100898.44
2018-06-25T07:53:49.001Z,100904.91
2018-06-25T07:56:15.855Z,100889.61
2018-06-25T07:58:42.715Z,100896.59
2018-06-25T08:01:09.573Z,100902.03
2018-06-25T08:03:36.453Z,100898.53
2018-06-25T08:06:03.291Z,100905.63
2018-06-25T08:08:30.131Z,100902.34
2018-06-25T08:10:57.000Z,100892.84
2018-06-25T08:13:23.856Z,100894.04
2018-06-25T08:15:50.721Z,100896.67
2018-06-25T08:18:18.579Z,100900.23
2018-06-25T08:20:45.507Z,100908.05
2018-06-25T08:23:16.639Z,100903.49
2018-06-25T08:25:45.679Z,100905.13
2018-06-25T08:28:12.635Z,100909.38
2018-06-25T08:30:42.546Z,100910.86
2018-06-25T08:33:11.044Z,100915.05
2018-06-25T08:35:39.046Z,100913.12
2018-06-25T08:38:06.467Z,100918.83
2018-06-25T08:40:38.459Z,100926.06
2018-06-25T08:43:05.457Z,100916.44
2018-06-25T08:45:33.406Z,100920.42
2018-06-25T08:48:00.983Z,100926.08
2018-06-25T08:50:39.786Z,100934.43
2018-06-25T08:53:06.783Z,100935.72
2018-06-25T08:55:34.793Z,100931.46
2018-06-25T08:58:05.479Z,100929.91
2018-06-25T09:00:32.467Z,100927.70
2018-06-25T09:03:00.509Z,100933.17
2018-06-25T09:05:27.408Z,100922.89
2018-06-25T09:07:55.087Z,100926.09
2018-06-25T09:10:23.059Z,100922.13
2018-06-25T09:12:51.574Z,100922.45
2018-06-25T09:15:19.105Z,100921.97
2018-06-25T09:17:49.471Z,100930.80
2018-06-25T09:20:19.090Z,100930.73
2018-06-25T09:22:47.593Z,100929.30
2018-06-25T09:25:16.101Z,100934.87
2018-06-25T09:27:49.176Z,100925.81
2018-06-25T09:30:18.998Z,100932.67
2018-06-25T09:32:45.986Z,100930.06
2018-06-25T09:35:12.982Z,100935.30
2018-06-25T09:37:40.911Z,100931.44
2018-06-25T09:40:08.676Z,100931.02
2018-06-25T09:42:35.738Z,100933.41
2018-06-25T09:45:03.215Z,100935.22
2018-06-25T09:47:30.198Z,100933.49
2018-06-25T09:49:58.160Z,100940.91
2018-06-25T09:52:27.072Z,100941.07
2018-06-25T09:54:54.077Z,100942.37
2018-06-25T09:57:21.576Z,100941.26
2018-06-25T09:59:48.552Z,100946.77
2018-06-25T10:02:15.499Z,100953.09
2018-06-25T10:04:42.445Z,100951.97
2018-06-25T10:07:11.060Z,100944.16
2018-06-25T10:09:47.975Z,100949.22
2018-06-25T10:14:53.665Z,100945.55
2018-06-25T10:17:21.669Z,100933.49
2018-06-25T10:19:48.625Z,100933.71
2018-06-25T10:22:15.569Z,100930.27
2018-06-25T10:24:44.090Z,100927.05
2018-06-25T10:27:11.023Z,100917.78
2018-06-25T10:29:37.974Z,100924.16
2018-06-25T10:32:05.719Z,100920.87
2018-06-25T10:34:32.610Z,100926.38
2018-06-25T10:36:59.591Z,100924.77
2018-06-25T10:39:26.603Z,100931.78
2018-06-25T10:41:53.602Z,100924.06
2018-06-25T10:44:22.238Z,100924.73
2018-06-25T10:46:49.123Z,100922.05
2018-06-25T10:49:15.982Z,100924.72
2018-06-25T10:51:43.920Z,100924.94
2018-06-25T10:54:24.403Z,100923.80
2018-06-25T10:56:51.313Z,100916.29
2018-06-25T10:59:19.145Z,100917.09
2018-06-25T11:01:46.080Z,100914.36
2018-06-25T11:04:12.969Z,100918.19
2018-06-25T11:06:46.222Z,100917.53
2018-06-25T11:09:13.167Z,100925.06
2018-06-25T11:11:41.669Z,100922.89
2018-06-25T11:14:09.630Z,100918.80
2018-06-25T11:16:36.494Z,100911.93
2018-06-25T11:19:03.507Z,100912.81
2018-06-25T11:21:30.394Z,100912.92
2018-06-25T11:23:58.098Z,100918.94
2018-06-25T11:26:29.667Z,100916.09
2018-06-25T11:28:56.597Z,100910.04
2018-06-25T11:31:24.601Z,100911.70
2018-06-25T11:33:51.562Z,100907.94
2018-06-25T11:36:19.953Z,100910.95
2018-06-25T11:38:46.949Z,100898.30
2018-06-25T11:41:13.860Z,100896.31
2018-06-25T11:43:41.675Z,100891.08
2018-06-25T11:46:08.593Z,100897.06
2018-06-25T11:48:36.154Z,100886.72
2018-06-25T11:51:06.334Z,100892.83
2018-06-25T11:53:34.127Z,100894.31
2018-06-25T11:56:01.105Z,100894.90
2018-06-25T11:58:29.102Z,100897.34
2018-06-25T12:00:59.055Z,100893.12
2018-06-25T12:03:27.127Z,100899.14
2018-06-25T12:05:59.986Z,100898.36
2018-06-25T12:08:27.686Z,100896.00
2018-06-25T12:10:54.650Z,100889.81
2018-06-25T12:13:21.691Z,100892.91
2018-06-25T12:15:50.166Z,100891.37
2018-06-25T12:18:17.633Z,100891.48
2018-06-25T12:20:44.621Z,100887.51
2018-06-25T12:23:11.706Z,100893.15
2018-06-25T12:25:42.126Z,100897.86
2018-06-25T12:28:09.082Z,100892.58
2018-06-25T12:30:41.670Z,100891.30
2018-06-25T12:33:08.614Z,100895.50
2018-06-25T12:35:39.254Z,100890.41
2018-06-25T12:38:06.210Z,100888.45
2018-06-25T12:40:33.707Z,100892.86
2018-06-25T12:43:03.750Z,100895.58
2018-06-25T12:45:32.117Z,100898.05
2018-06-25T12:48:00.602Z,100882.39
2018-06-25T12:50:28.155Z,100898.91
2018-06-25T12:52:55.144Z,100895.82
2018-06-25T12:55:24.053Z,100897.56
2018-06-25T12:57:52.650Z,100896.02
2018-06-25T13:00:20.186Z,100893.74
2018-06-25T13:02:47.166Z,100891.83
2018-06-25T13:05:16.612Z,100893.00
2018-06-25T13:07:45.186Z,100893.55
2018-06-25T13:10:12.186Z,100894.55
2018-06-25T13:12:42.690Z,100895.45
2018-06-25T13:15:11.174Z,100914.14
2018-06-25T13:17:38.668Z,100906.56
2018-06-25T13:20:06.235Z,100909.86
2018-06-25T13:22:34.231Z,100911.05
2018-06-25T13:25:01.674Z,100910.59
2018-06-25T13:27:29.274Z,100908.55
2018-06-25T13:29:57.242Z,100901.80
2018-06-25T13:32:31.457Z,100893.92
2018-06-25T13:34:58.407Z,100899.38
2018-06-25T13:37:27.407Z,100891.73
2018-06-25T13:39:54.377Z,100892.19
2018-06-25T13:42:21.309Z,100892.25
2018-06-25T13:44:50.229Z,100899.86
2018-06-25T13:47:17.181Z,100885.23
2018-06-25T13:49:45.206Z,100894.12
2018-06-25T13:52:12.755Z,100893.52
2018-06-25T13:54:40.406Z,100890.98
2018-06-25T13:57:08.385Z,100888.64
2018-06-25T13:59:40.181Z,100886.42
2018-06-25T14:02:07.298Z,100890.17
2018-06-25T14:04:36.534Z,100883.92
2018-06-25T14:07:04.418Z,100892.16
2018-06-25T14:09:31.382Z,100878.61
2018-06-25T14:12:03.296Z,100884.09
2018-06-25T14:14:31.433Z,100881.89
2018-06-25T14:17:02.504Z,100875.09
2018-06-25T14:19:29.511Z,100878.95
2018-06-25T14:21:56.475Z,100886.81
2018-06-25T14:24:31.289Z,100878.79
2018-06-25T14:27:06.609Z,100873.84
2018-06-25T14:29:40.098Z,100879.97
2018-06-25T14:32:16.918Z,100875.79
2018-06-25T14:34:55.615Z,100879.03
2018-06-25T14:37:23.004Z,100877.27
2018-06-25T14:39:50.286Z,100878.52
2018-06-25T14:42:17.247Z,100876.05
2018-06-25T14:44:44.202Z,100875.59
2018-06-25T14:49:47.194Z,100869.62
2018-06-25T14:52:14.084Z,100873.39
2018-06-25T14:54:42.775Z,100869.11
2018-06-25T14:57:11.174Z,100867.74
2018-06-25T14:59:38.724Z,100867.45
2018-06-25T15:02:12.406Z,100870.27
2018-06-25T15:04:40.257Z,100870.59
2018-06-25T15:07:10.238Z,100866.22
2018-06-25T15:09:37.744Z,100860.02
2018-06-25T15:12:06.275Z,100863.27
2018-06-25T15:14:35.797Z,100862.45
2018-06-25T15:17:05.834Z,100856.10
2018-06-25T15:19:44.610Z,100860.63
2018-06-25T15:22:11.530Z,100855.94
2018-06-25T15:24:40.283Z,100864.52
2018-06-25T15:27:09.733Z,100858.86
2018-06-25T15:29:37.316Z,100847.98
2018-06-25T15:32:07.299Z,100850.35
2018-06-25T15:34:34.767Z,100847.67
2018-06-25T15:37:03.762Z,100845.72
2018-06-25T15:39:34.393Z,100854.64
2018-06-25T15:42:07.505Z,100847.64
2018-06-25T15:44:35.271Z,100840.06
2018-06-25T15:47:04.802Z,100835.12
2018-06-25T15:49:32.242Z,100831.93
2018-06-25T15:51:59.223Z,100837.13
2018-06-25T15:54:27.245Z,100830.20
2018-06-25T15:56:54.782Z,100834.94
2018-06-25T15:59:29.006Z,100839.49
2018-06-25T16:01:58.833Z,100834.30
2018-06-25T16:04:29.913Z,100837.50
2018-06-25T16:06:57.868Z,100827.05
2018-06-25T16:09:28.714Z,100833.30
2018-06-25T16:11:55.691Z,100828.75
2018-06-25T16:14:22.670Z,100827.17
2018-06-25T16:16:49.566Z,100824.11
2018-06-25T16:19:17.214Z,100825.50
2018-06-25T16:21:44.123Z,100825.31
2018-06-25T16:24:11.124Z,100823.66
2018-06-25T16:26:41.635Z,100825.30
2018-06-25T16:29:14.802Z,100820.63
2018-06-25T16:31:45.257Z,100834.27
2018-06-25T16:34:12.943Z,100834.22
2018-06-25T16:36:42.761Z,100833.42
2018-06-25T16:39:11.103Z,100829.86
2018-06-25T16:41:39.881Z,100829.77
2018-06-25T16:44:08.129Z,100831.48
2018-06-25T16:46:37.337Z,100832.52
2018-06-25T16:49:06.447Z,100832.99
2018-06-25T16:51:33.382Z,100833.48
2018-06-25T16:54:04.054Z,100830.96
2018-06-25T16:56:33.124Z,100820.19
2018-06-25T16:59:03.770Z,100831.95
2018-06-25T17:01:33.883Z,100832.77
2018-06-25T17:04:01.809Z,100833.55
2018-06-25T17:06:28.771Z,100830.86
2018-06-25T17:08:59.530Z,100828.79
2018-06-25T17:11:44.484Z,100826.60
2018-06-25T17:14:17.727Z,100837.83
2018-06-25T17:16:50.719Z,100831.56
2018-06-25T17:19:20.811Z,100830.02
2018-06-25T17:21:51.687Z,100829.27
2018-06-25T17:24:22.368Z,100833.95
2018-06-25T17:26:57.926Z,100836.47
2018-06-25T17:29:24.863Z,100831.77
2018-06-25T17:31:51.813Z,100833.26
2018-06-25T17:34:18.837Z,100835.34
2018-06-25T17:36:49.318Z,100819.41
2018-06-25T17:42:11.734Z,100820.39
2018-06-25T17:44:39.186Z,100823.01
2018-06-25T17:47:07.142Z,100823.83
2018-06-25T17:49:34.790Z,100825.43
2018-06-25T17:52:05.775Z,100818.79
2018-06-25T17:54:32.786Z,100821.23
2018-06-25T17:57:03.918Z,100825.58
2018-06-25T17:59:34.842Z,100818.45
2018-06-25T18:02:05.373Z,100825.97
2018-06-25T18:04:34.887Z,100826.38
2018-06-25T18:07:03.362Z,100824.83
2018-06-25T18:09:30.848Z,100821.00
2018-06-25T18:11:57.819Z,100822.06
2018-06-25T18:14:27.750Z,100827.52
2018-06-25T18:16:54.692Z,100826.46
2018-06-25T18:19:27.945Z,100830.74
2018-06-25T18:21:54.867Z,100832.43
2018-06-25T18:24:21.765Z,100834.05
2018-06-25T18:26:48.677Z,100830.84
2018-06-25T18:29:15.631Z,100837.20
2018-06-25T18:31:42.583Z,100838.87
2018-06-25T18:34:09.542Z,100843.69
2018-06-25T18:36:38.555Z,100843.48
2018-06-25T18:39:07.345Z,100845.94
2018-06-25T18:41:34.845Z,100845.26
2018-06-25T18:44:01.782Z,100835.00
2018-06-25T18:46:35.522Z,100838.39
2018-06-25T18:49:05.695Z,100843.55
2018-06-25T18:51:32.882Z,100839.05
2018-06-25T18:53:59.830Z,100840.33
2018-06-25T18:56:26.741Z,100844.14
2018-06-25T18:58:53.631Z,100849.08
2018-06-25T19:01:26.770Z,100846.86
2018-06-25T19:03:53.918Z,100849.31
2018-06-25T19:06:20.878Z,100847.07
2018-06-25T19:08:47.806Z,100856.75
2018-06-25T19:11:14.786Z,100858.92
2018-06-25T19:13:44.766Z,100857.95
2018-06-25T19:16:11.686Z,100864.09
2018-06-25T19:18:38.770Z,100862.12
2018-06-25T19:21:05.725Z,100863.64
2018-06-25T19:23:32.732Z,100871.91
2018-06-25T19:25:59.594Z,100870.69
2018-06-25T19:28:26.561Z,100877.06
2018-06-25T19:30:53.526Z,100866.27
2018-06-25T19:33:20.461Z,100874.00
2018-06-25T19:35:48.310Z,100878.70
2018-06-25T19:38:15.213Z,100884.66
2018-06-25T19:40:42.178Z,100889.98
2018-06-25T19:43:09.141Z,100893.26
2018-06-25T19:45:36.013Z,100895.27
2018-06-25T19:48:03.882Z,100902.05
2018-06-25T19:50:31.847Z,100906.92
2018-06-25T19:53:00.877Z,100908.27
2018-06-25T19:55:28.008Z,100910.67
2018-06-25T19:57:54.969Z,100913.73
2018-06-25T20:00:21.929Z,100910.52
2018-06-25T20:02:48.925Z,100917.45
2018-06-25T20:05:15.867Z,100920.40
2018-06-25T20:07:42.859Z,100919.33
2018-06-25T20:10:14.384Z,100917.76
2018-06-25T20:12:41.907Z,100922.25
2018-06-25T20:15:08.914Z,100926.58
2018-06-25T20:17:36.882Z,100932.87
2018-06-25T20:20:07.002Z,100929.89
2018-06-25T20:22:34.018Z,100930.67
2018-06-25T20:25:01.968Z,100924.70
2018-06-25T20:27:29.418Z,100928.66
2018-06-25T20:29:58.134Z,100928.65
2018-06-25T20:32:25.067Z,100938.42
2018-06-25T20:34:53.060Z,100935.80
2018-06-25T20:37:26.366Z,100942.37
2018-06-25T20:39:56.282Z,100943.38
2018-06-25T20:42:24.258Z,100948.63
2018-06-25T20:44:52.258Z,100947.06
2018-06-25T20:47:19.284Z,100952.97
2018-06-25T20:49:49.244Z,100951.98
2018-06-25T20:52:17.198Z,100946.72
2018-06-25T20:54:45.918Z,100954.96
2018-06-25T20:57:12.870Z,100956.31
2018-06-25T20:59:40.862Z,100949.97
2018-06-25T21:02:08.826Z,100953.77
2018-06-25T21:04:37.435Z,100953.29
2018-06-25T21:07:04.390Z,100957.95
2018-06-25T21:09:31.965Z,100952.21
2018-06-25T21:12:00.974Z,100958.34
2018-06-25T21:14:28.946Z,100956.91
2018-06-25T21:16:59.447Z,100953.98
2018-06-25T21:19:26.355Z,100957.26
2018-06-25T21:21:54.314Z,100957.27
2018-06-25T21:24:22.905Z,100960.05
2018-06-25T21:26:50.463Z,100961.54
2018-06-25T21:29:17.333Z,100958.08
2018-06-25T21:31:44.926Z,100958.59
2018-06-25T21:34:12.493Z,100962.85
2018-06-25T21:36:39.927Z,100962.19
2018-06-25T21:39:09.221Z,100950.53
2018-06-25T21:41:39.467Z,100962.81
2018-06-25T21:44:06.462Z,100962.81
2018-06-25T21:46:34.993Z,100968.55
2018-06-25T21:49:07.954Z,100960.81
2018-06-25T21:51:36.438Z,100959.34
2018-06-25T21:54:03.511Z,100954.09
2018-06-25T21:56:30.478Z,100962.26
2018-06-25T21:58:57.418Z,100964.32
2018-06-25T22:01:27.351Z,100963.65
2018-06-25T22:03:54.337Z,100965.89
2018-06-25T22:06:23.348Z,100970.04
2018-06-25T22:08:51.986Z,100971.98
2018-06-25T22:11:18.976Z,100966.70
2018-06-25T22:13:45.940Z,100961.67
2018-06-25T22:16:12.906Z,100972.80
2018-06-25T22:18:39.835Z,100963.42
2018-06-25T22:21:07.498Z,100959.98
2018-06-25T22:23:34.477Z,100959.88
2018-06-25T22:26:05.253Z,100957.42
2018-06-25T22:28:32.181Z,100954.97
2018-06-25T22:31:00.150Z,100957.73
2018-06-25T22:33:27.999Z,100956.53
2018-06-25T22:36:02.273Z,100960.60
2018-06-25T22:38:35.367Z,100952.73
2018-06-25T22:41:03.034Z,100956.84
2018-06-25T22:43:30.499Z,100955.98
2018-06-25T22:45:57.475Z,100956.28
2018-06-25T22:48:42.063Z,100950.69
2018-06-25T22:51:13.311Z,100951.60
2018-06-25T22:53:40.970Z,100944.22
2018-06-25T22:56:07.917Z,100949.03
2018-06-25T22:58:35.517Z,100962.81
2018-06-25T23:01:02.982Z,100954.72
2018-06-25T23:03:29.937Z,100956.95
2018-06-25T23:05:59.543Z,100951.84
2018-06-25T23:08:29.476Z,100951.19
2018-06-25T23:10:56.435Z,100947.08
2018-06-25T23:13:23.425Z,100943.97
2018-06-25T23:15:50.364Z,100946.56
2018-06-25T23:18:18.394Z,100946.77
2018-06-25T23:20:46.061Z,100948.48
2018-06-25T23:23:13.511Z,100947.20
2018-06-25T23:25:40.470Z,100955.70
2018-06-25T23:28:17.203Z,100959.37
2018-06-25T23:30:45.042Z,100952.44
2018-06-25T23:33:12.034Z,100958.72
2018-06-25T23:35:39.530Z,100947.87
2018-06-25T23:38:08.007Z,100952.49
2018-06-25T23:40:36.510Z,100952.77
2018-06-25T23:43:04.428Z,100957.08
2018-06-25T23:45:33.110Z,100964.73
2018-06-25T23:48:01.057Z,100964.17
2018-06-25T23:50:28.030Z,100965.66
2018-06-25T23:52:56.626Z,100965.23
2018-06-25T23:55:24.549Z,100963.43
2018-06-25T23:57:53.004Z,100964.55
